createdAt,value
2023-03-29T00:00:17.070Z,101099.80
2023-03-29T00:03:05.360Z,101101.88
2023-03-29T00:05:35.096Z,101107.56
2023-03-29T00:08:04.189Z,101109.06
2023-03-29T00:10:33.561Z,101112.95
2023-03-29T00:13:02.370Z,101112.71
2023-03-29T00:15:30.050Z,101114.92
2023-03-29T00:17:58.096Z,101118.29
2023-03-29T00:20:25.899Z,101116.37
2023-03-29T00:22:53.532Z,101116.65
2023-03-29T00:25:21.369Z,101116.95
2023-03-29T00:27:49.245Z,101113.78
2023-03-29T00:30:17.501Z,101112.35
2023-03-29T00:32:45.964Z,101112.33
2023-03-29T00:35:13.731Z,101115.65
2023-03-29T00:37:41.477Z,101116.50
2023-03-29T00:40:11.677Z,101117.77
2023-03-29T00:42:39.428Z,101114.45
2023-03-29T00:45:10.228Z,101111.83
2023-03-29T00:47:56.868Z,101113.30
2023-03-29T00:50:40.781Z,101114.92
2023-03-29T00:53:18.375Z,101114.38
2023-03-29T00:55:54.909Z,101112.23
2023-03-29T00:58:31.792Z,101109.27
2023-03-29T01:01:19.282Z,101112.63
2023-03-29T01:03:58.205Z,101110.14
2023-03-29T01:06:29.406Z,101107.50
2023-03-29T01:09:01.357Z,101112.08
2023-03-29T01:11:41.787Z,101110.11
2023-03-29T01:14:23.738Z,101112.13
2023-03-29T01:16:51.876Z,101105.70
2023-03-29T01:19:26.463Z,101105.61
2023-03-29T01:22:25.914Z,101111.58
2023-03-29T01:25:32.700Z,101110.81
2023-03-29T01:28:10.838Z,101110.55
2023-03-29T01:31:14.520Z,101110.48
2023-03-29T01:33:55.601Z,101110.77
2023-03-29T01:36:37.802Z,101109.14
2023-03-29T01:39:07.178Z,101114.72
2023-03-29T01:42:22.022Z,101115.45
2023-03-29T01:45:05.789Z,101119.33
2023-03-29T01:47:46.134Z,101116.81
2023-03-29T01:50:40.562Z,101120.02
2023-03-29T01:53:14.481Z,101119.56
2023-03-29T01:55:47.283Z,101114.38
2023-03-29T01:58:17.567Z,101121.00
2023-03-29T02:00:47.314Z,101125.04
2023-03-29T02:03:17.822Z,101121.85
2023-03-29T02:05:45.944Z,101116.83
2023-03-29T02:08:16.296Z,101116.55
2023-03-29T02:10:44.774Z,101118.05
2023-03-29T02:13:12.495Z,101123.11
2023-03-29T02:15:40.218Z,101124.27
2023-03-29T02:18:08.175Z,101127.64
2023-03-29T02:20:40.613Z,101131.54
2023-03-29T02:23:15.664Z,101132.54
2023-03-29T02:25:45.758Z,101133.84
2023-03-29T02:28:14.521Z,101133.95
2023-03-29T02:30:51.326Z,101133.19
2023-03-29T02:33:42.108Z,101136.08
2023-03-29T02:36:15.891Z,101135.81
2023-03-29T02:38:43.938Z,101133.88
2023-03-29T02:41:13.025Z,101134.70
2023-03-29T02:43:42.469Z,101132.95
2023-03-29T02:46:11.039Z,101134.30
2023-03-29T02:48:39.655Z,101136.45
2023-03-29T02:51:16.333Z,101135.55
2023-03-29T02:53:51.987Z,101134.98
2023-03-29T02:56:20.684Z,101133.14
2023-03-29T02:58:48.440Z,101134.45
2023-03-29T03:01:17.959Z,101135.59
2023-03-29T03:03:46.518Z,101136.69
2023-03-29T03:06:15.214Z,101137.15
2023-03-29T03:08:43.086Z,101141.88
2023-03-29T03:11:10.832Z,101139.95
2023-03-29T03:13:38.532Z,101140.21
2023-03-29T03:16:07.896Z,101143.78
2023-03-29T03:18:35.666Z,101147.53
2023-03-29T03:21:04.597Z,101150.73
2023-03-29T03:23:32.501Z,101154.85
2023-03-29T03:26:00.255Z,101154.77
2023-03-29T03:28:28.360Z,101157.48
2023-03-29T03:30:56.425Z,101151.57
2023-03-29T03:33:24.839Z,101152.23
2023-03-29T03:36:11.458Z,101149.98
2023-03-29T03:38:39.623Z,101150.80
2023-03-29T03:41:07.402Z,101149.73
2023-03-29T03:43:35.989Z,101152.94
2023-03-29T03:46:04.044Z,101150.69
2023-03-29T03:48:32.391Z,101148.92
2023-03-29T03:51:07.469Z,101151.77
2023-03-29T03:53:36.186Z,101153.62
2023-03-29T03:56:24.137Z,101151.69
2023-03-29T03:59:07.309Z,101154.73
2023-03-29T04:01:55.500Z,101157.42
2023-03-29T04:04:24.118Z,101158.40
2023-03-29T04:07:02.792Z,101159.86
2023-03-29T04:09:45.297Z,101158.30
2023-03-29T04:12:21.506Z,101161.33
2023-03-29T04:14:49.827Z,101161.12
2023-03-29T04:17:22.489Z,101166.23
2023-03-29T04:20:13.486Z,101166.88
2023-03-29T04:22:41.808Z,101169.05
2023-03-29T04:25:11.725Z,101171.96
2023-03-29T04:27:59.938Z,101175.38
2023-03-29T04:30:39.154Z,101180.13
2023-03-29T04:33:32.907Z,101181.84
2023-03-29T04:36:01.491Z,101178.89
2023-03-29T04:38:31.089Z,101177.48
2023-03-29T04:41:01.084Z,101177.00
2023-03-29T04:43:47.733Z,101175.96
2023-03-29T04:46:26.615Z,101180.41
2023-03-29T04:49:12.875Z,101182.00
2023-03-29T04:51:43.932Z,101188.35
2023-03-29T04:54:11.733Z,101183.23
2023-03-29T04:57:02.362Z,101180.48
2023-03-29T04:59:48.308Z,101183.63
2023-03-29T05:02:23.122Z,101180.57
2023-03-29T05:04:51.191Z,101178.89
2023-03-29T05:07:19.873Z,101182.34
2023-03-29T05:09:48.060Z,101185.53
2023-03-29T05:12:16.065Z,101184.55
2023-03-29T05:14:53.955Z,101190.62
2023-03-29T05:17:23.978Z,101190.71
2023-03-29T05:19:51.812Z,101190.63
2023-03-29T05:22:21.516Z,101187.48
2023-03-29T05:24:49.945Z,101187.73
2023-03-29T05:27:22.800Z,101182.36
2023-03-29T05:30:01.860Z,101185.59
2023-03-29T05:32:37.339Z,101186.27
2023-03-29T05:35:05.792Z,101180.56
2023-03-29T05:37:34.354Z,101180.88
2023-03-29T05:40:10.054Z,101187.64
2023-03-29T05:42:53.704Z,101188.61
2023-03-29T05:45:22.838Z,101186.55
2023-03-29T05:47:51.139Z,101186.79
2023-03-29T05:50:18.824Z,101188.39
2023-03-29T05:52:47.723Z,101187.91
2023-03-29T05:55:15.572Z,101184.08
2023-03-29T05:57:43.239Z,101184.71
2023-03-29T06:00:23.682Z,101182.62
2023-03-29T06:02:53.720Z,101178.36
2023-03-29T06:05:22.877Z,101174.73
2023-03-29T06:08:01.725Z,101181.02
2023-03-29T06:10:42.917Z,101185.36
2023-03-29T06:13:27.746Z,101182.33
2023-03-29T06:15:56.120Z,101178.73
2023-03-29T06:18:25.988Z,101183.27
2023-03-29T06:20:53.884Z,101181.52
2023-03-29T06:23:23.048Z,101181.52
2023-03-29T06:25:55.329Z,101180.65
2023-03-29T06:28:24.089Z,101182.52
2023-03-29T06:30:54.042Z,101182.64
2023-03-29T06:33:23.175Z,101179.60
2023-03-29T06:36:04.696Z,101184.53
2023-03-29T06:38:32.489Z,101180.27
2023-03-29T06:41:12.596Z,101185.57
2023-03-29T06:44:02.151Z,101188.49
2023-03-29T06:46:37.574Z,101187.57
2023-03-29T06:49:09.895Z,101189.39
2023-03-29T06:52:03.493Z,101195.27
2023-03-29T06:54:31.701Z,101192.23
2023-03-29T06:57:05.353Z,101194.08
2023-03-29T06:59:35.027Z,101195.34
2023-03-29T07:02:25.989Z,101196.26
2023-03-29T07:04:56.790Z,101195.15
2023-03-29T07:07:53.491Z,101194.19
2023-03-29T07:10:32.381Z,101197.78
2023-03-29T07:13:27.956Z,101195.47
2023-03-29T07:15:56.663Z,101199.18
2023-03-29T07:18:34.171Z,101197.23
2023-03-29T07:21:02.727Z,101197.02
2023-03-29T07:23:32.346Z,101201.11
2023-03-29T07:26:01.268Z,101199.14
2023-03-29T07:28:29.805Z,101193.56
2023-03-29T07:31:11.063Z,101195.25
2023-03-29T07:33:44.837Z,101194.89
2023-03-29T07:36:12.682Z,101191.70
2023-03-29T07:38:41.762Z,101186.30
2023-03-29T07:41:13.493Z,101189.19
2023-03-29T07:43:44.180Z,101186.23
2023-03-29T07:46:12.811Z,101187.15
2023-03-29T07:48:40.652Z,101189.27
2023-03-29T07:51:11.246Z,101187.27
2023-03-29T07:53:44.876Z,101190.09
2023-03-29T07:56:26.439Z,101186.58
2023-03-29T07:59:23.191Z,101184.19
2023-03-29T08:01:59.244Z,101184.52
2023-03-29T08:04:31.754Z,101180.02
2023-03-29T08:07:29.129Z,101170.35
2023-03-29T08:10:03.161Z,101175.08
2023-03-29T08:12:50.288Z,101166.48
2023-03-29T08:15:19.574Z,101164.38
2023-03-29T08:17:47.528Z,101161.67
2023-03-29T08:20:18.613Z,101160.84
2023-03-29T08:22:48.720Z,101155.98
2023-03-29T08:25:16.839Z,101150.59
2023-03-29T08:27:47.509Z,101149.02
2023-03-29T08:30:18.330Z,101146.09
2023-03-29T08:32:49.304Z,101140.75
2023-03-29T08:35:19.265Z,101138.71
2023-03-29T08:38:03.980Z,101143.11
2023-03-29T08:40:31.956Z,101139.30
2023-03-29T08:43:39.727Z,101135.52
2023-03-29T08:46:35.391Z,101136.29
2023-03-29T08:49:29.081Z,101126.21
2023-03-29T08:52:03.337Z,101126.17
2023-03-29T08:54:44.642Z,101123.84
2023-03-29T08:57:35.756Z,101115.56
2023-03-29T09:00:13.705Z,101126.27
2023-03-29T09:02:43.867Z,101127.71
2023-03-29T09:05:28.842Z,101120.60
2023-03-29T09:08:21.229Z,101119.77
2023-03-29T09:11:16.662Z,101116.99
2023-03-29T09:13:51.174Z,101122.40
2023-03-29T09:16:49.232Z,101118.05
2023-03-29T09:19:37.448Z,101114.54
2023-03-29T09:22:31.336Z,101116.11
2023-03-29T09:25:30.020Z,101111.03
2023-03-29T09:28:05.042Z,101110.48
2023-03-29T09:31:12.230Z,101108.71
2023-03-29T09:33:45.074Z,101103.81
2023-03-29T09:36:34.619Z,101096.29
2023-03-29T09:39:03.816Z,101097.49
2023-03-29T09:41:39.185Z,101091.02
2023-03-29T09:46:55.987Z,101079.45
2023-03-29T09:49:34.552Z,101081.88
2023-03-29T09:52:11.520Z,101082.75
2023-03-29T09:54:40.163Z,101080.48
2023-03-29T09:57:29.087Z,101076.63
2023-03-29T09:59:58.989Z,101073.13
2023-03-29T10:02:31.375Z,101071.02
2023-03-29T10:05:05.988Z,101072.42
2023-03-29T10:07:44.547Z,101076.62
2023-03-29T10:10:42.149Z,101076.27
2023-03-29T10:13:23.054Z,101071.38
2023-03-29T10:16:09.233Z,101072.62
2023-03-29T10:18:41.658Z,101074.54
2023-03-29T10:21:12.804Z,101068.61
2023-03-29T10:23:41.128Z,101076.48
2023-03-29T10:26:22.908Z,101073.68
2023-03-29T10:28:57.078Z,101070.70
2023-03-29T10:31:25.322Z,101067.89
2023-03-29T10:33:56.233Z,101071.91
2023-03-29T10:36:27.329Z,101072.08
2023-03-29T10:38:58.979Z,101070.49
2023-03-29T10:41:28.598Z,101070.65
2023-03-29T10:43:56.700Z,101068.89
2023-03-29T10:46:28.564Z,101062.40
2023-03-29T10:49:10.371Z,101063.60
2023-03-29T10:51:38.085Z,101060.59
2023-03-29T10:54:10.309Z,101061.31
2023-03-29T10:56:55.617Z,101057.09
2023-03-29T10:59:40.162Z,101056.20
2023-03-29T11:02:13.897Z,101054.80
2023-03-29T11:05:09.057Z,101053.02
2023-03-29T11:08:03.235Z,101047.79
2023-03-29T11:10:33.947Z,101043.93
2023-03-29T11:13:27.785Z,101042.00
2023-03-29T11:16:29.888Z,101033.58
2023-03-29T11:19:12.934Z,101033.73
2023-03-29T11:22:06.368Z,101022.67
2023-03-29T11:24:39.325Z,101027.89
2023-03-29T11:27:35.604Z,101024.52
2023-03-29T11:30:27.773Z,101017.66
2023-03-29T11:33:14.789Z,101011.30
2023-03-29T11:35:50.641Z,101004.23
2023-03-29T11:38:42.293Z,101005.88
2023-03-29T11:41:30.449Z,101009.95
2023-03-29T11:44:05.339Z,101002.11
2023-03-29T11:46:40.153Z,100999.73
2023-03-29T11:49:14.836Z,101002.66
2023-03-29T11:52:30.249Z,101001.87
2023-03-29T11:55:05.518Z,100992.79
2023-03-29T11:57:42.505Z,100990.05
2023-03-29T12:00:19.643Z,100982.90
2023-03-29T12:02:58.016Z,100986.56
2023-03-29T12:05:37.252Z,100990.27
2023-03-29T12:08:16.445Z,100980.47
2023-03-29T12:10:53.055Z,100976.60
2023-03-29T12:13:26.594Z,100978.14
2023-03-29T12:16:01.185Z,100976.55
2023-03-29T12:18:45.523Z,100975.66
2023-03-29T12:21:17.882Z,100974.33
2023-03-29T12:23:46.398Z,100969.61
2023-03-29T12:26:57.455Z,100966.11
2023-03-29T12:29:40.561Z,100962.17
2023-03-29T12:32:45.916Z,100955.73
2023-03-29T12:36:16.371Z,100960.23
2023-03-29T12:39:15.284Z,100959.90
2023-03-29T12:42:23.071Z,100956.70
2023-03-29T12:45:19.190Z,100952.75
2023-03-29T12:47:50.949Z,100947.86
2023-03-29T12:50:25.444Z,100945.63
2023-03-29T12:52:53.228Z,100943.54
2023-03-29T12:55:33.586Z,100946.08
2023-03-29T12:58:27.272Z,100946.98
2023-03-29T13:01:07.159Z,100945.98
2023-03-29T13:03:46.537Z,100938.30
2023-03-29T13:06:32.300Z,100937.66
2023-03-29T13:09:22.958Z,100940.83
2023-03-29T13:11:57.179Z,100937.68
2023-03-29T13:14:30.064Z,100938.42
2023-03-29T13:17:17.545Z,100934.92
2023-03-29T13:20:10.085Z,100932.52
2023-03-29T13:22:40.709Z,100930.67
2023-03-29T13:25:32.621Z,100928.64
2023-03-29T13:28:07.382Z,100930.67
2023-03-29T13:31:00.029Z,100929.38
2023-03-29T13:33:46.347Z,100924.27
2023-03-29T13:36:34.320Z,100917.70
2023-03-29T13:39:06.964Z,100917.10
2023-03-29T13:41:43.100Z,100915.89
2023-03-29T13:44:22.678Z,100914.33
2023-03-29T13:47:02.874Z,100913.35
2023-03-29T13:49:33.979Z,100910.61
2023-03-29T13:52:01.744Z,100903.17
2023-03-29T13:54:40.678Z,100901.46
2023-03-29T13:57:08.829Z,100900.92
2023-03-29T13:59:59.056Z,100903.73
2023-03-29T14:02:35.620Z,100901.13
2023-03-29T14:05:06.247Z,100901.52
2023-03-29T14:07:38.072Z,100899.12
2023-03-29T14:10:06.878Z,100893.23
2023-03-29T14:12:41.664Z,100900.95
2023-03-29T14:15:21.460Z,100900.20
2023-03-29T14:17:52.844Z,100896.12
2023-03-29T14:20:20.990Z,100894.30
2023-03-29T14:22:49.680Z,100888.59
2023-03-29T14:25:23.229Z,100886.05
2023-03-29T14:27:55.630Z,100885.30
2023-03-29T14:30:27.570Z,100885.94
2023-03-29T14:32:57.006Z,100886.77
2023-03-29T14:38:35.939Z,100892.40
2023-03-29T14:41:07.543Z,100888.48
2023-03-29T14:43:38.064Z,100886.48
2023-03-29T14:46:08.880Z,100888.98
2023-03-29T14:48:37.830Z,100884.21
2023-03-29T14:51:07.243Z,100882.55
2023-03-29T14:53:58.579Z,100880.02
2023-03-29T14:56:40.051Z,100877.50
2023-03-29T14:59:27.308Z,100873.17
2023-03-29T15:02:04.883Z,100874.48
2023-03-29T15:04:38.868Z,100874.86
2023-03-29T15:07:09.322Z,100874.73
2023-03-29T15:09:52.041Z,100878.08
2023-03-29T15:12:23.985Z,100875.85
2023-03-29T15:14:54.048Z,100873.61
2023-03-29T15:17:50.118Z,100868.78
2023-03-29T15:20:41.664Z,100867.63
2023-03-29T15:23:15.370Z,100865.59
2023-03-29T15:25:51.068Z,100867.88
2023-03-29T15:28:28.752Z,100869.12
2023-03-29T15:31:08.127Z,100867.56
2023-03-29T15:33:39.459Z,100863.38
2023-03-29T15:36:11.580Z,100862.36
2023-03-29T15:38:44.726Z,100862.02
2023-03-29T15:41:14.837Z,100858.70
2023-03-29T15:43:43.239Z,100852.41
2023-03-29T15:46:13.608Z,100854.55
2023-03-29T15:48:44.656Z,100851.21
2023-03-29T15:51:19.810Z,100852.60
2023-03-29T15:53:48.991Z,100846.33
2023-03-29T15:56:28.239Z,100847.04
2023-03-29T15:58:56.171Z,100849.52
2023-03-29T16:01:37.351Z,100847.64
2023-03-29T16:04:09.983Z,100842.45
2023-03-29T16:06:38.038Z,100843.90
2023-03-29T16:09:07.049Z,100844.86
2023-03-29T16:11:35.718Z,100840.90
2023-03-29T16:14:11.703Z,100837.45
2023-03-29T16:16:39.667Z,100834.04
2023-03-29T16:19:07.700Z,100830.96
2023-03-29T16:21:36.798Z,100829.80
2023-03-29T16:24:05.040Z,100828.62
2023-03-29T16:26:33.183Z,100829.92
2023-03-29T16:29:01.421Z,100824.39
2023-03-29T16:31:29.268Z,100823.92
2023-03-29T16:33:57.108Z,100825.93
2023-03-29T16:36:24.957Z,100821.63
2023-03-29T16:38:53.564Z,100821.67
2023-03-29T16:41:22.346Z,100818.26
2023-03-29T16:43:50.398Z,100813.77
2023-03-29T16:46:18.306Z,100811.21
2023-03-29T16:48:50.170Z,100807.58
2023-03-29T16:51:21.392Z,100812.19
2023-03-29T16:53:55.035Z,100807.91
2023-03-29T16:56:25.036Z,100806.23
2023-03-29T16:58:56.114Z,100812.94
2023-03-29T17:01:39.164Z,100811.42
2023-03-29T17:04:07.279Z,100807.83
2023-03-29T17:06:35.929Z,100803.52
2023-03-29T17:09:05.095Z,100803.40
2023-03-29T17:11:37.152Z,100806.08
2023-03-29T17:14:08.392Z,100807.88
2023-03-29T17:16:46.399Z,100806.55
2023-03-29T17:19:18.996Z,100805.72
2023-03-29T17:21:46.922Z,100805.25
2023-03-29T17:24:14.889Z,100804.59
2023-03-29T17:26:45.660Z,100809.88
2023-03-29T17:29:13.776Z,100806.96
2023-03-29T17:31:47.830Z,100807.00
2023-03-29T17:34:17.432Z,100812.80
2023-03-29T17:36:46.151Z,100817.73
2023-03-29T17:39:18.813Z,100814.10
2023-03-29T17:41:47.646Z,100817.63
2023-03-29T17:44:19.060Z,100817.84
2023-03-29T17:46:47.135Z,100820.31
2023-03-29T17:49:15.120Z,100822.61
2023-03-29T17:51:52.602Z,100822.46
2023-03-29T17:54:24.953Z,100824.05
2023-03-29T17:57:03.571Z,100830.36
2023-03-29T17:59:37.873Z,100829.33
2023-03-29T18:02:23.781Z,100831.09
2023-03-29T18:04:51.957Z,100828.84
2023-03-29T18:07:20.057Z,100833.91
2023-03-29T18:10:08.930Z,100832.70
2023-03-29T18:12:41.732Z,100827.33
2023-03-29T18:15:11.251Z,100826.11
2023-03-29T18:17:39.094Z,100825.77
2023-03-29T18:20:11.832Z,100824.57
2023-03-29T18:22:45.804Z,100817.78
2023-03-29T18:25:24.369Z,100815.17
2023-03-29T18:28:48.525Z,100812.39
2023-03-29T18:31:03.683Z,100819.20
2023-03-29T18:33:35.212Z,100820.06
2023-03-29T18:36:13.310Z,100816.05
2023-03-29T18:38:46.444Z,100815.19
2023-03-29T18:41:16.157Z,100813.62
2023-03-29T18:43:45.087Z,100812.94
2023-03-29T18:46:13.339Z,100810.84
2023-03-29T18:48:42.148Z,100810.86
2023-03-29T18:51:12.622Z,100814.34
2023-03-29T18:54:32.174Z,100818.52
2023-03-29T18:56:49.199Z,100821.48
2023-03-29T18:59:18.159Z,100823.05
2023-03-29T19:01:46.509Z,100819.56
2023-03-29T19:04:14.653Z,100820.09
2023-03-29T19:06:42.674Z,100814.68
2023-03-29T19:09:11.001Z,100817.65
2023-03-29T19:11:38.927Z,100814.17
2023-03-29T19:14:09.252Z,100814.52
2023-03-29T19:16:37.608Z,100808.78
2023-03-29T19:19:08.552Z,100812.42
2023-03-29T19:21:36.898Z,100816.08
2023-03-29T19:24:05.604Z,100818.69
2023-03-29T19:26:38.501Z,100816.41
2023-03-29T19:29:10.117Z,100820.06
2023-03-29T19:31:39.250Z,100818.34
2023-03-29T19:34:09.612Z,100818.16
2023-03-29T19:36:37.813Z,100814.33
2023-03-29T19:39:06.326Z,100813.98
2023-03-29T19:41:34.266Z,100812.42
2023-03-29T19:44:02.664Z,100810.49
2023-03-29T19:46:32.099Z,100808.75
2023-03-29T19:49:05.703Z,100807.37
2023-03-29T19:51:34.102Z,100801.45
2023-03-29T19:54:02.707Z,100800.05
2023-03-29T19:56:32.132Z,100798.32
2023-03-29T19:59:04.860Z,100794.83
2023-03-29T20:01:32.919Z,100792.23
2023-03-29T20:04:09.297Z,100778.99
2023-03-29T20:06:39.510Z,100779.34
2023-03-29T20:09:07.762Z,100780.38
2023-03-29T20:11:36.127Z,100774.11
2023-03-29T20:14:04.474Z,100771.85
2023-03-29T20:16:35.931Z,100768.89
2023-03-29T20:19:06.165Z,100767.51
2023-03-29T20:21:42.018Z,100765.42
2023-03-29T20:24:11.449Z,100765.94
2023-03-29T20:26:39.949Z,100762.61
2023-03-29T20:29:08.990Z,100757.94
2023-03-29T20:31:37.211Z,100755.34
2023-03-29T20:34:05.377Z,100749.41
2023-03-29T20:36:33.681Z,100748.38
2023-03-29T20:39:02.097Z,100746.29
2023-03-29T20:41:31.556Z,100745.06
2023-03-29T20:44:00.100Z,100745.06
2023-03-29T20:46:34.934Z,100743.86
2023-03-29T20:49:05.494Z,100743.52
2023-03-29T20:51:33.763Z,100747.87
2023-03-29T20:54:04.925Z,100746.13
2023-03-29T20:56:39.634Z,100744.56
2023-03-29T20:59:10.945Z,100745.44
2023-03-29T21:01:40.929Z,100744.73
2023-03-29T21:04:10.756Z,100743.19
2023-03-29T21:06:41.647Z,100736.57
2023-03-29T21:09:09.682Z,100737.77
2023-03-29T21:11:37.709Z,100739.52
2023-03-29T21:14:05.986Z,100740.73
2023-03-29T21:16:34.553Z,100737.09
2023-03-29T21:19:02.563Z,100736.21
2023-03-29T21:21:30.599Z,100734.81
2023-03-29T21:23:58.800Z,100734.98
2023-03-29T21:26:27.087Z,100734.27
2023-03-29T21:28:54.976Z,100733.73
2023-03-29T21:31:23.058Z,100728.35
2023-03-29T21:33:53.020Z,100730.61
2023-03-29T21:36:20.999Z,100727.64
2023-03-29T21:38:49.635Z,100725.02
2023-03-29T21:41:18.499Z,100723.27
2023-03-29T21:43:46.472Z,100719.43
2023-03-29T21:46:14.847Z,100719.60
2023-03-29T21:48:43.039Z,100719.94
2023-03-29T21:51:10.926Z,100720.48
2023-03-29T21:53:39.027Z,100715.25
2023-03-29T21:56:08.213Z,100717.14
2023-03-29T21:58:36.821Z,100710.70
2023-03-29T22:01:07.321Z,100705.16
2023-03-29T22:03:37.214Z,100704.63
2023-03-29T22:06:10.522Z,100706.71
2023-03-29T22:08:40.593Z,100705.14
2023-03-29T22:11:16.475Z,100701.67
2023-03-29T22:13:44.980Z,100696.98
2023-03-29T22:16:14.122Z,100687.94
2023-03-29T22:18:42.635Z,100683.95
2023-03-29T22:21:27.340Z,100682.38
2023-03-29T22:23:56.845Z,100671.80
2023-03-29T22:26:27.833Z,100674.05
2023-03-29T22:28:56.857Z,100672.66
2023-03-29T22:31:26.498Z,100676.15
2023-03-29T22:33:55.788Z,100676.34
2023-03-29T22:36:26.380Z,100667.65
2023-03-29T22:38:54.892Z,100665.39
2023-03-29T22:41:24.418Z,100666.27
2023-03-29T22:43:53.128Z,100666.09
2023-03-29T22:46:21.913Z,100658.98
2023-03-29T22:48:51.316Z,100664.54
2023-03-29T22:51:19.954Z,100663.48
2023-03-29T22:53:48.262Z,100656.55
2023-03-29T22:56:17.230Z,100657.92
2023-03-29T22:58:45.868Z,100652.88
2023-03-29T23:01:14.225Z,100657.41
2023-03-29T23:03:42.225Z,100655.33
2023-03-29T23:06:10.195Z,100652.38
2023-03-29T23:08:38.018Z,100647.33
2023-03-29T23:11:07.442Z,100645.25
2023-03-29T23:13:35.602Z,100645.24
2023-03-29T23:16:04.863Z,100640.73
2023-03-29T23:18:35.030Z,100643.85
2023-03-29T23:21:05.609Z,100641.77
2023-03-29T23:23:34.305Z,100640.20
2023-03-29T23:26:02.571Z,100638.47
2023-03-29T23:28:31.461Z,100639.00
2023-03-29T23:31:04.622Z,100630.83
2023-03-29T23:33:35.325Z,100639.69
2023-03-29T23:36:06.023Z,100639.17
2023-03-29T23:38:36.281Z,100634.30
2023-03-29T23:41:06.945Z,100636.21
2023-03-29T23:43:37.383Z,100635.34
2023-03-29T23:46:08.919Z,100634.82
2023-03-29T23:48:37.986Z,100635.16
2023-03-29T23:51:08.427Z,100632.74
2023-03-29T23:53:37.468Z,100635.52
2023-03-29T23:56:06.310Z,100628.92
2023-03-29T23:58:37.509Z,100624.39
